Time;durP1;ratioP1;P1;durP2;ratioP2;P2;SDS_P1;SDS_P2;PMS_P1;PMS_P2;Temp;Humidity;BMP_temperature;BMP_pressure;BME280_temperature;BME280_humidity;BME280_pressure;Samples;Min_cycle;Max_cycle;Signal;HPM_P1;HPM_P2
2021/09/08 00:01:08;;;;;;;11.02;8.45;;;;;;;10.65;100.00;101623.28;5024949;28;20060;-83
2021/09/08 00:03:35;;;;;;;11.23;8.88;;;;;;;10.59;100.00;101613.63;5020673;28;20037;-82
2021/09/08 00:06:02;;;;;;;12.43;8.43;;;;;;;10.56;100.00;101618.06;5005573;28;20040;-84
2021/09/08 00:08:28;;;;;;;12.43;9.90;;;;;;;10.52;100.00;101611.94;5020058;28;20044;-83
2021/09/08 00:10:55;;;;;;;10.48;8.65;;;;;;;10.51;100.00;101604.88;5004732;28;20059;-83
2021/09/08 00:13:25;;;;;;;12.00;9.60;;;;;;;10.51;100.00;101618.09;5001162;28;20041;-83
2021/09/08 00:15:51;;;;;;;10.85;8.32;;;;;;;10.50;100.00;101611.03;5013573;28;20173;-84
2021/09/08 00:18:18;;;;;;;11.98;8.93;;;;;;;10.49;100.00;101611.03;5015605;28;20030;-83
2021/09/08 00:20:45;;;;;;;11.43;8.48;;;;;;;10.45;100.00;101611.97;5015714;28;20052;-83
2021/09/08 00:23:11;;;;;;;16.52;10.25;;;;;;;10.39;100.00;101613.72;5080894;23;20477;-78
2021/09/08 00:25:38;;;;;;;13.18;9.38;;;;;;;10.36;100.00;101615.53;5002054;28;20033;-79
2021/09/08 00:28:05;;;;;;;11.50;9.02;;;;;;;10.31;100.00;101614.66;5020377;28;20056;-81
2021/09/08 00:30:32;;;;;;;12.63;9.07;;;;;;;10.29;100.00;101611.16;4999641;28;20048;-78
2021/09/08 00:32:58;;;;;;;11.30;8.60;;;;;;;10.27;100.00;101618.22;5004813;28;20567;-80
2021/09/08 00:35:25;;;;;;;12.27;8.73;;;;;;;10.24;100.00;101626.13;4993932;28;20502;-80
2021/09/08 00:37:51;;;;;;;12.32;8.98;;;;;;;10.21;100.00;101620.81;5041275;28;20053;-77
2021/09/08 00:40:18;;;;;;;12.38;8.48;;;;;;;10.20;100.00;101619.06;5025165;28;20453;-79
2021/09/08 00:42:45;;;;;;;14.25;10.13;;;;;;;10.19;100.00;101618.19;5014486;28;20029;-78
2021/09/08 00:45:13;;;;;;;14.30;10.43;;;;;;;10.14;100.00;101618.19;5003529;28;20053;-78
2021/09/08 00:47:40;;;;;;;10.20;8.32;;;;;;;10.12;100.00;101622.63;5011459;28;20045;-78
2021/09/08 00:50:08;;;;;;;13.05;9.80;;;;;;;10.17;100.00;101617.31;5000606;28;20051;-77
2021/09/08 00:52:37;;;;;;;11.25;8.90;;;;;;;10.16;100.00;101619.06;5008114;28;20038;-78
2021/09/08 00:55:05;;;;;;;12.13;9.63;;;;;;;10.04;100.00;101612.97;5024501;28;20037;-78
2021/09/08 00:57:32;;;;;;;15.57;9.93;;;;;;;10.06;100.00;101614.69;5015308;28;20171;-78
2021/09/08 01:00:02;;;;;;;11.88;9.20;;;;;;;10.06;100.00;101619.09;5013305;28;20041;-80
2021/09/08 01:02:29;;;;;;;12.63;10.45;;;;;;;10.00;100.00;101622.63;4989821;28;20041;-79
2021/09/08 01:04:56;;;;;;;11.60;8.88;;;;;;;9.95;100.00;101620.91;5026172;28;20045;-80
2021/09/08 01:07:23;;;;;;;14.43;9.60;;;;;;;9.91;100.00;101627.94;5019901;28;20049;-79
2021/09/08 01:09:50;;;;;;;11.10;8.50;;;;;;;9.91;100.00;101619.13;5009455;28;20502;-80
2021/09/08 01:12:16;;;;;;;13.25;8.63;;;;;;;9.89;100.00;101611.22;4987159;28;20044;-78
2021/09/08 01:14:43;;;;;;;14.65;10.30;;;;;;;9.90;100.00;101615.63;4995349;28;20086;-78
2021/09/08 01:17:10;;;;;;;13.50;8.48;;;;;;;9.89;100.00;101619.16;5006990;28;20103;-79
2021/09/08 01:19:36;;;;;;;13.27;9.55;;;;;;;9.91;100.00;101614.75;4999116;28;20102;-80
2021/09/08 01:22:04;;;;;;;12.10;9.10;;;;;;;9.90;100.00;101620.03;5007239;28;20045;-79
2021/09/08 01:24:30;;;;;;;13.18;9.02;;;;;;;9.84;100.00;101619.19;5028578;28;20498;-79
2021/09/08 01:26:58;;;;;;;11.30;8.95;;;;;;;9.79;100.00;101610.38;5027517;28;20778;-79
2021/09/08 01:29:24;;;;;;;12.10;8.88;;;;;;;9.73;100.00;101610.38;5004566;28;20047;-80
2021/09/08 01:31:56;;;;;;;11.52;9.82;;;;;;;9.71;100.00;101609.53;4994415;28;20048;-79
2021/09/08 01:34:23;;;;;;;11.20;9.23;;;;;;;9.66;100.00;101616.56;4998118;28;20436;-78
2021/09/08 01:36:50;;;;;;;11.20;8.80;;;;;;;9.65;100.00;101613.91;4994245;28;20041;-78
2021/09/08 01:39:18;;;;;;;13.05;8.73;;;;;;;9.62;100.00;101613.94;5011688;28;20460;-78
2021/09/08 01:41:47;;;;;;;11.98;9.30;;;;;;;9.58;100.00;101624.50;5022175;28;20033;-79
2021/09/08 01:44:19;;;;;;;12.23;8.75;;;;;;;9.57;100.00;101614.81;4995453;28;20044;-80
2021/09/08 01:46:45;;;;;;;13.18;8.88;;;;;;;9.54;100.00;101613.94;4994975;28;20053;-79
2021/09/08 01:49:12;;;;;;;11.73;9.48;;;;;;;9.50;100.00;101613.06;4995311;28;20040;-79
2021/09/08 01:51:39;;;;;;;10.55;8.55;;;;;;;9.48;100.00;101608.66;5022420;28;20099;-79
2021/09/08 01:54:05;;;;;;;9.77;8.10;;;;;;;9.45;100.00;101612.19;5026420;28;20091;-77
2021/09/08 01:56:32;;;;;;;12.55;9.13;;;;;;;9.44;100.00;101617.47;4994983;28;20527;-79
2021/09/08 01:58:59;;;;;;;11.07;8.88;;;;;;;9.39;100.00;101617.47;5005714;28;20050;-78
2021/09/08 02:01:26;;;;;;;12.65;8.93;;;;;;;9.40;100.00;101618.34;5018157;28;20053;-81
2021/09/08 02:03:53;;;;;;;11.88;9.00;;;;;;;9.41;100.00;101610.41;5012605;28;20029;-80
2021/09/08 02:06:25;;;;;;;10.68;8.57;;;;;;;9.37;100.00;101611.31;5004742;28;20064;-78
2021/09/08 02:08:53;;;;;;;13.82;9.98;;;;;;;9.36;100.00;101614.84;5001803;28;20482;-80
2021/09/08 02:11:20;;;;;;;10.60;9.10;;;;;;;9.35;100.00;101610.44;5019171;28;21924;-79
2021/09/08 02:13:47;;;;;;;12.63;9.20;;;;;;;9.29;100.00;101618.34;5006500;28;20041;-79
2021/09/08 02:16:15;;;;;;;10.65;7.90;;;;;;;9.25;100.00;101614.84;5013130;28;20049;-78
2021/09/08 02:18:43;;;;;;;12.52;9.70;;;;;;;9.24;100.00;101618.31;5002597;28;20133;-78
2021/09/08 02:21:09;;;;;;;9.98;8.32;;;;;;;9.20;100.00;101610.44;5018942;28;20672;-81
2021/09/08 02:23:36;;;;;;;11.80;8.98;;;;;;;9.19;100.00;101606.91;5014675;28;20048;-80
2021/09/08 02:26:03;;;;;;;13.52;9.05;;;;;;;9.19;100.00;101600.78;4985486;28;20045;-79
2021/09/08 02:28:29;;;;;;;10.02;8.38;;;;;;;9.15;100.00;101606.91;5005023;28;20498;-80
2021/09/08 02:30:56;;;;;;;15.63;9.18;;;;;;;9.08;100.00;101602.50;4984706;28;20049;-79
2021/09/08 02:33:23;;;;;;;12.23;8.30;;;;;;;9.08;100.00;101605.13;4991465;28;20041;-78
2021/09/08 02:35:50;;;;;;;10.73;8.45;;;;;;;9.08;100.00;101610.41;5028899;28;20056;-79
2021/09/08 02:38:17;;;;;;;10.73;8.25;;;;;;;9.07;100.00;101603.38;5026019;28;20088;-79
2021/09/08 02:40:45;;;;;;;10.07;8.80;;;;;;;9.07;100.00;101606.03;4990871;28;20044;-80
2021/09/08 02:43:12;;;;;;;11.93;8.88;;;;;;;9.05;100.00;101597.25;5016144;28;20095;-78
2021/09/08 02:45:38;;;;;;;12.02;8.60;;;;;;;9.02;100.00;101606.03;5007228;28;20426;-80
2021/09/08 02:48:05;;;;;;;13.73;8.95;;;;;;;8.99;100.00;101604.25;5019424;28;20049;-77
2021/09/08 02:50:32;;;;;;;12.00;9.90;;;;;;;8.95;100.00;101599.88;5012693;28;20049;-78
2021/09/08 02:52:58;;;;;;;11.82;8.82;;;;;;;8.90;100.00;101600.72;4997168;28;20048;-78
2021/09/08 02:55:25;;;;;;;12.90;9.05;;;;;;;8.88;100.00;101600.72;5017074;28;20043;-78
2021/09/08 02:57:52;;;;;;;11.02;8.25;;;;;;;8.89;100.00;101597.22;5009659;28;20107;-78
2021/09/08 03:00:19;;;;;;;12.20;8.57;;;;;;;8.91;100.00;101597.22;5024819;28;20041;-78
2021/09/08 03:02:45;;;;;;;13.80;9.60;;;;;;;8.87;100.00;101595.47;5028708;28;20044;-78
2021/09/08 03:05:12;;;;;;;11.27;9.40;;;;;;;8.80;100.00;101598.97;5011719;28;20075;-79
2021/09/08 03:07:39;;;;;;;11.38;8.23;;;;;;;8.79;100.00;101591.94;5023441;28;20033;-80
2021/09/08 03:10:06;;;;;;;10.77;8.60;;;;;;;8.78;100.00;101598.97;5004572;28;20137;-78
2021/09/08 03:12:33;;;;;;;13.88;9.85;;;;;;;8.77;100.00;101599.84;5012450;28;20044;-80
2021/09/08 03:15:00;;;;;;;12.43;8.75;;;;;;;8.77;100.00;101599.84;5011633;28;20135;-78
2021/09/08 03:17:26;;;;;;;10.75;8.25;;;;;;;8.73;100.00;101604.22;5019722;28;20053;-79
2021/09/08 03:19:53;;;;;;;13.02;8.70;;;;;;;8.70;100.00;101605.97;5021242;28;20462;-79
2021/09/08 03:22:20;;;;;;;13.57;9.60;;;;;;;8.73;100.00;101600.69;5004870;28;20635;-78
2021/09/08 03:24:48;;;;;;;12.27;9.20;;;;;;;8.75;100.00;101598.97;5013414;28;20095;-79
2021/09/08 03:27:14;;;;;;;12.20;9.05;;;;;;;8.76;100.00;101591.94;5016706;28;20045;-78
2021/09/08 03:29:41;;;;;;;11.68;9.02;;;;;;;8.72;100.00;101586.66;5008878;28;20057;-79
2021/09/08 03:32:08;;;;;;;10.60;8.02;;;;;;;8.64;100.00;101592.78;5024839;28;20045;-80
2021/09/08 03:34:35;;;;;;;11.75;8.57;;;;;;;8.62;100.00;101594.53;4998013;28;20037;-79
2021/09/08 03:37:02;;;;;;;14.30;9.68;;;;;;;8.60;100.00;101586.63;5014377;28;20110;-78
2021/09/08 03:39:29;;;;;;;9.77;8.45;;;;;;;8.58;100.00;101595.41;4988062;28;20103;-78
2021/09/08 03:41:55;;;;;;;11.70;8.18;;;;;;;8.54;100.00;101599.78;5010768;28;20041;-78
2021/09/08 03:44:22;;;;;;;13.52;9.40;;;;;;;8.52;100.00;101593.63;5008945;28;20083;-77
2021/09/08 03:46:49;;;;;;;11.48;8.95;;;;;;;8.51;100.00;101594.50;5026859;28;20056;-80
2021/09/08 03:49:15;;;;;;;11.65;9.05;;;;;;;8.48;100.00;101589.22;5012979;28;20041;-80
2021/09/08 03:51:42;;;;;;;12.32;8.82;;;;;;;8.45;100.00;101592.72;5025910;28;20445;-78
2021/09/08 03:54:09;;;;;;;14.05;9.75;;;;;;;8.44;100.00;101588.34;5030780;28;20042;-79
2021/09/08 03:56:35;;;;;;;11.52;8.43;;;;;;;8.41;100.00;101593.63;4987115;28;20049;-81
2021/09/08 03:59:02;;;;;;;11.88;8.90;;;;;;;8.42;100.00;101592.72;4990553;28;20037;-81
2021/09/08 04:01:29;;;;;;;10.98;8.55;;;;;;;8.44;100.00;101595.38;5001447;28;20119;-79
2021/09/08 04:03:56;;;;;;;12.63;9.55;;;;;;;8.40;100.00;101589.19;5020624;28;20694;-78
2021/09/08 04:06:22;;;;;;;13.88;8.95;;;;;;;8.38;100.00;101590.06;5013184;28;20091;-78
2021/09/08 04:08:49;;;;;;;17.02;9.50;;;;;;;8.38;100.00;101593.59;4991467;28;20607;-81
2021/09/08 04:11:18;;;;;;;11.15;8.48;;;;;;;8.36;100.00;101592.72;5029501;28;20049;-78
2021/09/08 04:13:44;;;;;;;11.37;8.47;;;;;;;8.31;100.00;101589.13;5005450;28;20038;-79
2021/09/08 04:16:11;;;;;;;11.85;8.32;;;;;;;8.30;100.00;101591.75;5008422;28;20045;-79
2021/09/08 04:18:38;;;;;;;12.27;8.23;;;;;;;8.30;100.00;101586.50;4996092;28;20041;-80
2021/09/08 04:21:04;;;;;;;13.48;9.45;;;;;;;8.29;100.00;101584.75;5009519;28;20041;-79
2021/09/08 04:23:31;;;;;;;10.65;8.40;;;;;;;8.23;100.00;101590.84;5019174;28;20044;-78
2021/09/08 04:25:58;;;;;;;12.82;8.93;;;;;;;8.21;100.00;101583.84;5010415;28;20041;-79
2021/09/08 04:28:24;;;;;;;15.77;9.43;;;;;;;8.23;100.00;101582.94;5033928;28;20037;-79
2021/09/08 04:30:51;;;;;;;9.73;8.00;;;;;;;8.24;100.00;101582.13;5011242;28;20041;-79
2021/09/08 04:33:18;;;;;;;12.83;9.23;;;;;;;8.24;100.00;101579.47;5013304;28;20037;-78
2021/09/08 04:35:44;;;;;;;12.03;8.67;;;;;;;8.20;100.00;101588.22;5029679;28;20041;-79
2021/09/08 04:38:11;;;;;;;12.60;9.23;;;;;;;8.16;100.00;101576.81;5027498;28;20052;-79
2021/09/08 04:40:37;;;;;;;11.95;8.57;;;;;;;8.20;100.00;101585.59;5025767;28;20037;-78
2021/09/08 04:43:04;;;;;;;9.87;8.23;;;;;;;8.22;100.00;101572.44;5005103;28;20110;-81
2021/09/08 04:45:31;;;;;;;11.57;8.83;;;;;;;8.25;100.00;101577.72;5034039;28;20049;-77
2021/09/08 04:47:57;;;;;;;12.43;8.30;;;;;;;8.23;100.00;101582.94;5034137;28;20433;-78
2021/09/08 04:50:24;;;;;;;10.85;8.63;;;;;;;8.23;100.00;101584.72;5036496;28;20107;-78
2021/09/08 04:52:51;;;;;;;9.70;8.30;;;;;;;8.19;100.00;101582.06;5028227;28;20049;-79
2021/09/08 04:55:17;;;;;;;11.30;8.73;;;;;;;8.24;100.00;101586.47;5004879;28;20042;-79
2021/09/08 04:57:44;;;;;;;11.00;8.67;;;;;;;8.23;100.00;101577.69;5008763;28;20045;-82
2021/09/08 05:00:11;;;;;;;11.40;8.53;;;;;;;8.25;100.00;101583.88;5028140;28;20048;-79
2021/09/08 05:02:38;;;;;;;10.50;8.07;;;;;;;8.29;100.00;101569.81;5013204;28;20449;-79
2021/09/08 05:05:06;;;;;;;10.63;7.85;;;;;;;8.31;100.00;101570.69;5019901;28;20049;-78
2021/09/08 05:07:33;;;;;;;11.75;8.23;;;;;;;8.31;100.00;101575.97;5015140;28;20520;-77
2021/09/08 05:10:00;;;;;;;11.82;8.50;;;;;;;8.35;100.00;101569.00;5012820;28;20553;-78
2021/09/08 05:12:26;;;;;;;11.40;8.75;;;;;;;8.38;100.00;101572.50;5032134;28;20139;-79
2021/09/08 05:14:53;;;;;;;10.98;8.50;;;;;;;8.39;100.00;101576.91;5032883;28;20041;-78
2021/09/08 05:17:20;;;;;;;11.03;8.60;;;;;;;8.42;100.00;101574.31;5033504;28;20047;-79
2021/09/08 05:19:46;;;;;;;11.43;8.30;;;;;;;8.49;100.00;101574.28;5035720;28;20118;-80
2021/09/08 05:22:13;;;;;;;10.38;8.52;;;;;;;8.53;100.00;101571.69;5018040;28;20056;-77
2021/09/08 05:24:41;;;;;;;11.27;8.80;;;;;;;8.53;100.00;101576.09;5000319;28;20040;-77
2021/09/08 05:27:08;;;;;;;11.93;8.43;;;;;;;8.51;100.00;101570.81;5011467;28;20050;-77
2021/09/08 05:29:34;;;;;;;12.32;9.02;;;;;;;8.55;100.00;101575.19;5009661;28;20442;-80
2021/09/08 05:32:01;;;;;;;12.00;9.10;;;;;;;8.61;100.00;101574.34;5028169;28;20132;-79
2021/09/08 05:34:28;;;;;;;12.57;8.73;;;;;;;8.66;100.00;101580.47;5019264;28;20040;-77
2021/09/08 05:36:55;;;;;;;11.10;9.35;;;;;;;8.65;100.00;101568.19;5002161;28;20041;-80
2021/09/08 05:39:21;;;;;;;11.07;8.48;;;;;;;8.67;100.00;101566.47;5025505;28;20041;-80
2021/09/08 05:41:48;;;;;;;13.55;8.95;;;;;;;8.71;100.00;101565.56;5026055;28;20042;-77
2021/09/08 05:44:15;;;;;;;11.20;8.68;;;;;;;8.74;100.00;101569.13;4997047;28;20037;-78
2021/09/08 05:46:41;;;;;;;12.52;8.32;;;;;;;8.78;100.00;101569.09;4999809;28;20056;-78
2021/09/08 05:49:08;;;;;;;11.30;8.68;;;;;;;8.81;100.00;101569.09;5012423;28;20041;-77
2021/09/08 05:51:34;;;;;;;11.60;8.68;;;;;;;8.85;100.00;101565.59;5031514;28;20494;-79
2021/09/08 05:54:01;;;;;;;13.52;9.57;;;;;;;8.89;100.00;101573.50;5013876;28;20041;-79
2021/09/08 05:56:28;;;;;;;12.55;9.75;;;;;;;8.95;100.00;101568.25;5032837;28;20038;-79
2021/09/08 05:58:54;;;;;;;13.25;8.30;;;;;;;8.98;100.00;101568.22;5034011;28;20048;-80
2021/09/08 06:01:21;;;;;;;11.38;8.07;;;;;;;8.98;100.00;101565.59;5015197;28;20110;-78
2021/09/08 06:03:48;;;;;;;9.23;8.25;;;;;;;8.99;100.00;101564.72;5034512;28;20041;-77
2021/09/08 06:06:15;;;;;;;14.32;9.32;;;;;;;9.08;100.00;101569.16;5016554;28;20411;-79
2021/09/08 06:08:42;;;;;;;9.90;8.20;;;;;;;9.15;100.00;101570.00;5017714;28;20504;-77
2021/09/08 06:11:09;;;;;;;11.57;8.45;;;;;;;9.18;100.00;101572.66;5013816;28;20178;-76
2021/09/08 06:13:36;;;;;;;15.18;9.32;;;;;;;9.15;100.00;101576.16;5030898;28;20036;-78
2021/09/08 06:16:03;;;;;;;10.50;8.98;;;;;;;9.15;100.00;101570.88;5001808;28;20049;-79
2021/09/08 06:18:30;;;;;;;12.30;8.48;;;;;;;9.25;100.00;101564.75;4999559;28;20040;-77
2021/09/08 06:20:57;;;;;;;11.88;9.25;;;;;;;9.55;100.00;101568.22;5029093;28;20090;-80
2021/09/08 06:23:24;;;;;;;9.88;7.80;;;;;;;9.78;100.00;101570.81;5016233;28;20044;-77
2021/09/08 06:25:50;;;;;;;11.35;7.68;;;;;;;10.03;100.00;101569.84;5014486;28;20129;-77
2021/09/08 06:28:18;;;;;;;8.32;7.00;;;;;;;10.62;100.00;101568.69;5028894;28;20376;-78
2021/09/08 06:30:45;;;;;;;13.32;7.35;;;;;;;10.63;100.00;101569.56;5016164;28;20028;-78
2021/09/08 06:33:12;;;;;;;10.55;7.22;;;;;;;10.73;100.00;101570.41;5029529;28;20047;-77
2021/09/08 06:35:38;;;;;;;9.90;7.00;;;;;;;11.27;100.00;101561.19;4997516;28;20127;-77
2021/09/08 06:38:05;;;;;;;9.05;6.05;;;;;;;12.25;100.00;101563.63;5021163;28;20052;-78
2021/09/08 06:40:31;;;;;;;8.32;5.82;;;;;;;13.30;91.59;101555.91;5008163;28;20053;-78
2021/09/08 06:42:58;;;;;;;10.38;5.20;;;;;;;13.92;85.86;101555.63;4991401;28;20037;-79
2021/09/08 06:45:25;;;;;;;9.43;5.68;;;;;;;14.55;81.79;101555.22;5163882;23;1240172;-80
2021/09/08 06:47:52;;;;;;;5.88;5.20;;;;;;;15.15;78.83;101557.31;5045362;28;20036;-84
2021/09/08 06:50:19;;;;;;;5.93;4.90;;;;;;;15.84;74.71;101561.72;5027820;28;20083;-80
2021/09/08 06:52:46;;;;;;;6.40;4.72;;;;;;;16.11;73.19;101560.06;5013685;28;20044;-81
2021/09/08 06:55:12;;;;;;;6.40;5.35;;;;;;;16.38;72.60;101547.69;5015406;28;20090;-80
2021/09/08 06:57:39;;;;;;;7.28;4.90;;;;;;;16.63;71.19;101547.81;5033105;28;20386;-82
2021/09/08 07:00:07;;;;;;;7.40;5.72;;;;;;;16.78;67.62;101541.16;5018675;28;20066;-82
2021/09/08 07:02:34;;;;;;;12.45;5.75;;;;;;;16.40;67.39;101545.88;5028378;28;20041;-81
2021/09/08 07:05:02;;;;;;;6.47;4.80;;;;;;;16.68;69.32;101550.34;5049199;28;20651;-78
2021/09/08 07:07:30;;;;;;;8.10;4.72;;;;;;;16.74;69.78;101545.72;5044283;28;20594;-79
2021/09/08 07:09:57;;;;;;;6.18;4.82;;;;;;;16.77;70.30;101553.63;5031976;28;20713;-80
2021/09/08 07:12:24;;;;;;;7.38;5.43;;;;;;;16.73;70.10;101545.75;5048902;28;20178;-78
2021/09/08 07:14:51;;;;;;;10.10;5.57;;;;;;;16.39;72.01;101551.22;5034598;28;20041;-78
2021/09/08 07:17:17;;;;;;;11.93;6.07;;;;;;;16.43;73.78;101545.78;5033041;28;20040;-80
2021/09/08 07:19:44;;;;;;;8.30;5.80;;;;;;;16.08;73.33;101546.81;5049474;28;20115;-78
2021/09/08 07:22:11;;;;;;;8.10;6.60;;;;;;;16.28;75.95;101546.22;5047918;28;20044;-80
2021/09/08 07:24:38;;;;;;;6.38;5.35;;;;;;;16.39;75.72;101543.22;5031466;28;20041;-79
2021/09/08 07:27:04;;;;;;;7.20;5.70;;;;;;;16.07;77.85;101547.75;5028644;28;20053;-79
2021/09/08 07:29:31;;;;;;;9.25;6.07;;;;;;;16.18;77.74;101550.97;5019330;28;20050;-78
2021/09/08 07:31:58;;;;;;;8.30;5.38;;;;;;;16.11;79.87;101546.72;5045306;28;20669;-79
2021/09/08 07:34:26;;;;;;;7.47;5.95;;;;;;;16.02;80.69;101555.00;5049067;28;20517;-78
2021/09/08 07:36:53;;;;;;;8.05;6.55;;;;;;;16.12;82.88;101548.47;5025712;28;20041;-78
2021/09/08 07:39:20;;;;;;;8.15;6.28;;;;;;;16.32;87.61;101539.91;5022940;28;20080;-79
2021/09/08 07:41:47;;;;;;;9.07;6.38;;;;;;;16.41;89.29;101538.75;5048997;28;20063;-79
2021/09/08 07:44:14;;;;;;;9.45;7.25;;;;;;;16.21;88.52;101539.31;5052230;28;20059;-80
2021/09/08 07:46:41;;;;;;;9.35;6.85;;;;;;;16.27;89.22;101531.16;5049011;28;20044;-78
2021/09/08 07:49:08;;;;;;;8.23;6.40;;;;;;;16.30;89.36;101539.03;5041922;28;20045;-79
2021/09/08 07:51:35;;;;;;;10.82;7.65;;;;;;;16.41;91.38;101538.75;5025850;28;20055;-79
2021/09/08 07:54:02;;;;;;;14.85;8.20;;;;;;;16.31;92.14;101541.69;5062121;28;20060;-78
2021/09/08 07:56:29;;;;;;;9.27;7.32;;;;;;;16.38;92.11;101541.47;5036533;28;20032;-80
2021/09/08 07:58:55;;;;;;;10.63;7.57;;;;;;;16.47;94.58;101535.88;5048636;28;20119;-80
2021/09/08 08:01:22;;;;;;;8.77;7.40;;;;;;;16.51;95.47;101540.19;5058136;28;20044;-78
2021/09/08 08:03:53;;;;;;;9.90;7.57;;;;;;;16.64;96.79;101538.00;5029810;28;20132;-78
2021/09/08 08:06:20;;;;;;;9.95;8.27;;;;;;;16.80;97.88;101539.28;5035953;28;20516;-79
2021/09/08 08:08:47;;;;;;;13.13;9.82;;;;;;;17.03;99.26;101541.22;5029103;28;20343;-79
2021/09/08 08:11:14;;;;;;;12.73;9.65;;;;;;;17.24;93.80;101532.50;5054489;28;20547;-79
2021/09/08 08:13:41;;;;;;;12.15;9.55;;;;;;;17.32;92.03;101533.13;5055628;28;20044;-80
2021/09/08 08:16:28;;;;;;;11.20;8.45;;;;;;;17.47;94.10;101530.81;5040948;28;20067;-79
2021/09/08 08:18:55;;;;;;;10.57;8.23;;;;;;;17.45;92.68;101529.06;5030401;28;20044;-78
2021/09/08 08:21:22;;;;;;;12.32;8.55;;;;;;;17.74;93.61;101532.56;5028119;28;20773;-79
2021/09/08 08:23:48;;;;;;;9.98;7.90;;;;;;;17.98;83.08;101536.09;5021107;28;20053;-79
2021/09/08 08:26:18;;;;;;;10.60;8.55;;;;;;;18.06;81.83;101530.47;5054760;28;20083;-79
2021/09/08 08:28:44;;;;;;;15.00;9.15;;;;;;;18.11;85.54;101528.50;5046288;28;20095;-78
2021/09/08 08:31:11;;;;;;;12.50;8.30;;;;;;;18.21;84.63;101528.09;5021556;28;20040;-80
2021/09/08 08:33:38;;;;;;;9.35;7.57;;;;;;;18.21;85.55;101530.75;5037452;28;20037;-79
2021/09/08 08:36:05;;;;;;;11.27;8.05;;;;;;;18.40;80.10;101530.91;5015334;28;20072;-79
2021/09/08 08:38:32;;;;;;;9.80;7.82;;;;;;;18.64;76.92;101531.75;5031579;28;20143;-78
2021/09/08 08:41:00;;;;;;;14.48;8.85;;;;;;;18.62;80.01;101532.75;5012199;28;20754;-79
2021/09/08 08:43:27;;;;;;;10.57;7.80;;;;;;;18.64;81.79;101531.75;5051578;28;20095;-79
2021/09/08 08:45:54;;;;;;;10.77;7.72;;;;;;;18.79;82.71;101527.63;5037151;28;20047;-80
2021/09/08 08:48:21;;;;;;;9.30;7.72;;;;;;;18.92;79.43;101526.19;5041128;28;20037;-78
2021/09/08 08:50:48;;;;;;;25.83;9.10;;;;;;;18.96;78.05;101527.81;5051345;28;20039;-79
2021/09/08 08:53:15;;;;;;;12.70;8.10;;;;;;;19.15;77.33;101530.56;5036183;28;20555;-79
2021/09/08 08:55:41;;;;;;;10.93;7.72;;;;;;;19.56;71.37;101527.91;5055042;28;20036;-79
2021/09/08 08:58:08;;;;;;;10.93;8.43;;;;;;;19.81;68.88;101527.72;5032581;28;20484;-79
2021/09/08 09:00:35;;;;;;;9.02;6.85;;;;;;;19.82;70.30;101533.03;5034118;28;20702;-78
2021/09/08 09:03:04;;;;;;;10.05;7.90;;;;;;;19.95;74.04;101528.00;5049018;28;23760;-79
2021/09/08 09:05:38;;;;;;;9.32;7.65;;;;;;;20.02;67.51;101531.25;5028148;28;20036;-80
2021/09/08 09:08:07;;;;;;;10.87;7.77;;;;;;;20.39;66.04;101517.84;5024022;28;20490;-79
2021/09/08 09:10:38;;;;;;;10.30;8.07;;;;;;;20.52;67.02;101516.38;5041728;28;20672;-79
2021/09/08 09:13:05;;;;;;;10.88;7.60;;;;;;;20.48;65.67;101517.44;5032837;28;20048;-79
2021/09/08 09:15:32;;;;;;;9.02;7.50;;;;;;;20.69;66.04;101520.06;5035852;28;20075;-80
2021/09/08 09:17:58;;;;;;;10.45;8.18;;;;;;;20.90;63.76;101518.09;5034103;28;20045;-80
2021/09/08 09:20:30;;;;;;;8.55;6.82;;;;;;;21.10;63.19;101512.59;5026750;28;20041;-80
2021/09/08 09:22:59;;;;;;;10.73;7.78;;;;;;;21.33;64.79;101512.31;5050036;28;20085;-80
2021/09/08 09:25:29;;;;;;;9.77;7.47;;;;;;;21.43;64.94;101507.31;5020855;28;20033;-80
2021/09/08 09:27:58;;;;;;;8.15;7.07;;;;;;;21.70;60.53;101501.47;5038603;28;20052;-81
2021/09/08 09:30:27;;;;;;;8.95;6.95;;;;;;;21.76;61.57;101504.66;5021170;28;20051;-79
2021/09/08 09:32:56;;;;;;;10.40;7.65;;;;;;;21.88;60.94;101493.25;5050412;28;20051;-81
2021/09/08 09:35:25;;;;;;;10.80;8.02;;;;;;;22.08;59.81;101494.00;5034682;28;20044;-79
2021/09/08 09:37:55;;;;;;;9.98;7.45;;;;;;;22.23;62.21;101495.88;5027354;28;20075;-79
2021/09/08 09:40:27;;;;;;;10.88;7.35;;;;;;;22.31;59.90;101484.66;5034668;28;20123;-79
2021/09/08 09:42:55;;;;;;;8.00;6.67;;;;;;;22.40;57.01;101487.69;5026805;28;20083;-80
2021/09/08 09:45:22;;;;;;;10.82;7.60;;;;;;;22.43;56.30;101490.22;5030130;28;20117;-81
2021/09/08 09:47:49;;;;;;;9.52;7.72;;;;;;;22.51;58.85;101483.53;5020401;28;20059;-81
2021/09/08 09:50:18;;;;;;;9.35;7.22;;;;;;;22.68;58.47;101472.66;5037917;28;20087;-81
2021/09/08 09:52:52;;;;;;;10.05;7.75;;;;;;;22.86;56.17;101479.69;5038285;28;20135;-80
2021/09/08 09:55:20;;;;;;;9.18;7.85;;;;;;;22.89;56.77;101476.81;5046915;28;20040;-82
2021/09/08 09:57:48;;;;;;;10.70;8.75;;;;;;;23.00;53.78;101473.47;5019764;28;20124;-80
2021/09/08 10:00:17;;;;;;;8.45;7.25;;;;;;;23.00;55.19;101473.47;5030899;28;20397;-80
2021/09/08 10:02:45;;;;;;;8.63;7.82;;;;;;;23.03;54.76;101475.97;5029584;28;20075;-79
2021/09/08 10:05:14;;;;;;;10.75;8.20;;;;;;;23.00;54.61;101465.41;5038802;28;20558;-82
2021/09/08 10:07:41;;;;;;;10.93;8.55;;;;;;;22.94;54.33;101466.63;5035637;28;20738;-81
2021/09/08 10:10:16;;;;;;;10.60;8.38;;;;;;;22.86;54.89;101463.50;5032367;28;20045;-81
2021/09/08 10:13:12;;;;;;;8.20;7.13;;;;;;;22.76;57.22;101454.22;5005278;28;20117;-80
2021/09/08 10:15:39;;;;;;;15.20;8.35;;;;;;;22.84;56.18;101454.63;5052228;28;20467;-80
2021/09/08 10:18:10;;;;;;;8.20;7.10;;;;;;;23.11;55.59;101448.56;5036043;28;20044;-81
2021/09/08 10:20:37;;;;;;;8.73;7.82;;;;;;;23.24;53.34;101447.75;5018200;28;20045;-80
2021/09/08 10:23:15;;;;;;;9.95;7.35;;;;;;;23.53;53.83;101442.38;5029547;28;20101;-79
2021/09/08 10:25:48;;;;;;;20.13;7.50;;;;;;;23.66;53.26;101440.69;5038685;28;20090;-80
2021/09/08 10:28:17;;;;;;;10.45;7.57;;;;;;;23.67;52.77;101447.81;5039523;28;20087;-81
2021/09/08 10:30:45;;;;;;;9.25;7.57;;;;;;;23.49;52.24;101439.03;5019382;28;20097;-81
2021/09/08 10:33:12;;;;;;;10.40;7.72;;;;;;;23.67;53.83;101441.56;5024518;28;20504;-80
2021/09/08 10:35:40;;;;;;;9.50;7.28;;;;;;;23.79;54.29;101429.97;5021535;28;20726;-81
2021/09/08 10:38:23;;;;;;;8.88;7.85;;;;;;;23.94;52.33;101431.69;5033304;28;20045;-81
2021/09/08 10:40:51;;;;;;;8.13;6.78;;;;;;;23.96;50.35;101426.19;5023340;28;20049;-80
2021/09/08 10:43:29;;;;;;;8.25;7.20;;;;;;;24.11;53.08;101422.50;5029217;28;20527;-81
2021/09/08 10:45:56;;;;;;;10.20;7.57;;;;;;;24.16;50.85;101417.69;5049202;28;20040;-81
2021/09/08 10:48:39;;;;;;;10.30;8.10;;;;;;;24.35;53.10;101410.13;5030678;28;20493;-80
2021/09/08 10:51:10;;;;;;;9.90;8.17;;;;;;;24.50;50.36;101410.97;5032694;28;20051;-81
2021/09/08 10:53:38;;;;;;;8.75;7.80;;;;;;;24.45;52.17;101413.09;5029959;28;20486;-80
2021/09/08 10:56:06;;;;;;;11.73;8.57;;;;;;;24.41;49.91;101411.56;5016261;28;20141;-80
2021/09/08 10:59:08;;;;;;;9.95;7.15;;;;;;;24.42;51.54;101408.78;5043071;28;20102;-80
2021/09/08 11:01:35;;;;;;;9.68;7.65;;;;;;;24.48;50.24;101402.09;5031814;28;20041;-79
2021/09/08 11:04:03;;;;;;;13.73;7.95;;;;;;;24.48;49.82;101404.81;5015982;28;20502;-80
2021/09/08 11:06:39;;;;;;;9.45;7.18;;;;;;;24.66;49.62;101400.84;5036190;28;20094;-80
2021/09/08 11:09:11;;;;;;;8.77;7.30;;;;;;;24.55;49.52;101399.84;5017828;28;20076;-80
2021/09/08 11:11:55;;;;;;;12.18;7.95;;;;;;;24.11;50.04;101387.41;5071113;28;20032;-79
2021/09/08 11:14:52;;;;;;;11.35;7.68;;;;;;;24.15;50.68;101389.84;5043673;28;20048;-81
2021/09/08 11:17:26;;;;;;;9.60;8.38;;;;;;;24.24;50.88;101387.50;5030683;28;20494;-81
2021/09/08 11:19:59;;;;;;;9.02;7.68;;;;;;;24.30;51.30;101382.56;5052557;28;20515;-80
2021/09/08 11:22:26;;;;;;;10.02;7.70;;;;;;;24.46;52.20;101384.25;5033854;28;20140;-79